Miami University (OXD)

 

Airport Diagram
No Airport Diagram Available
Current Weather/Forecast (VFR Conditions)
METAR KOXD 280355Z AUTO 01008KT 7SM SCT018 SCT034 OVC075 M04/M04 A3033 RMK AO2 T10371037
TAF

Airport Information

All Charts
General
Chart Name View
TAKEOFF MINIMUMS
TAKEOFF MINIMUMS

Approaches
Chart Name Download
RNAV (GPS) RWY 05
RNAV (GPS) RWY 23
RNAV (GPS) RWY 05
RNAV (GPS) RWY 23


Airport Statistics
Departures Arrivals Local
All Collected Stats since June 2016: 4 4 1
2021 Stats: 0 0 1
January Stats: 0 0 1

Inbound Traffic (Arrivals) - 0

No inbound traffic.


Outbound Traffic (Departures) - 0

No outbound traffic.


Local Traffic (Pattern) - 0

No local traffic.